Time;durP1;ratioP1;P1;durP2;ratioP2;P2;SDS_P1;SDS_P2;PMS_P1;PMS_P2;Temp;Humidity;BMP_temperature;BMP_pressure;BME280_temperature;BME280_humidity;BME280_pressure;Samples;Min_cycle;Max_cycle;Signal;HPM_P1;HPM_P2
2024/01/16 00:01:08;;;;;;;6.90;0.97;;;-0.40;99.90;;;;;;5125819;27;20027;-86
2024/01/16 00:03:34;;;;;;;8.13;1.00;;;-0.40;99.90;;;;;;5110353;27;20092;-85
2024/01/16 00:06:01;;;;;;;8.10;1.67;;;-0.50;99.90;;;;;;5083959;28;20479;-87
2024/01/16 00:08:27;;;;;;;7.60;1.40;;;-0.50;99.90;;;;;;5105037;27;20071;-85
2024/01/16 00:10:53;;;;;;;7.23;1.20;;;-0.50;99.90;;;;;;5115087;27;20401;-85
2024/01/16 00:13:19;;;;;;;9.80;1.87;;;-0.50;99.90;;;;;;5119084;27;20554;-86
2024/01/16 00:15:44;;;;;;;14.43;1.70;;;-0.40;99.90;;;;;;5090070;27;20092;-85
2024/01/16 00:18:10;;;;;;;6.80;1.10;;;-0.30;99.90;;;;;;5096250;27;20035;-87
2024/01/16 00:20:36;;;;;;;4.23;1.07;;;-0.30;99.90;;;;;;5111338;27;20113;-87
2024/01/16 00:23:01;;;;;;;6.13;0.80;;;-0.20;99.90;;;;;;5095011;28;20036;-86
2024/01/16 00:25:27;;;;;;;2.97;0.63;;;0.00;99.90;;;;;;5089842;27;20042;-86
2024/01/16 00:27:52;;;;;;;7.53;0.90;;;0.00;99.90;;;;;;5094319;27;20041;-86
2024/01/16 00:30:18;;;;;;;3.00;0.63;;;0.00;99.90;;;;;;5112626;27;20052;-86
2024/01/16 00:32:44;;;;;;;2.13;0.60;;;0.00;99.90;;;;;;5105275;28;20514;-87
2024/01/16 00:35:10;;;;;;;4.40;0.60;;;-0.10;99.90;;;;;;5110113;27;20469;-86
2024/01/16 00:37:37;;;;;;;1.87;0.30;;;-0.10;99.90;;;;;;5131498;27;20039;-85
2024/01/16 00:40:04;;;;;;;1.37;0.60;;;-0.10;99.90;;;;;;5090167;27;20087;-86
2024/01/16 00:42:31;;;;;;;3.20;0.50;;;0.00;99.90;;;;;;5110720;27;20035;-85
2024/01/16 00:44:57;;;;;;;1.63;0.93;;;-0.10;99.90;;;;;;5096547;27;20118;-85
2024/01/16 00:47:23;;;;;;;1.80;0.60;;;-0.10;99.90;;;;;;5092658;27;20105;-85
2024/01/16 00:49:49;;;;;;;7.17;0.73;;;-0.20;99.90;;;;;;5112643;27;20034;-85
2024/01/16 00:52:15;;;;;;;4.30;0.50;;;-0.30;99.90;;;;;;5114343;27;20094;-85
2024/01/16 00:54:41;;;;;;;4.23;0.67;;;-0.30;99.90;;;;;;5131810;27;20027;-85
2024/01/16 00:57:07;;;;;;;7.23;0.80;;;-0.30;99.90;;;;;;5110440;28;20055;-85
2024/01/16 00:59:33;;;;;;;4.03;0.70;;;-0.30;99.90;;;;;;5100601;28;20512;-86
2024/01/16 01:01:59;;;;;;;3.40;0.77;;;-0.30;99.90;;;;;;5107298;27;20040;-85
2024/01/16 01:04:24;;;;;;;8.20;0.87;;;-0.20;99.90;;;;;;5102648;28;20120;-85
2024/01/16 01:06:50;;;;;;;5.47;1.10;;;-0.20;99.90;;;;;;5106376;27;20455;-86
2024/01/16 01:09:16;;;;;;;5.03;0.80;;;-0.10;99.90;;;;;;5113352;27;20066;-85
2024/01/16 01:11:42;;;;;;;6.10;0.83;;;-0.10;99.90;;;;;;5087648;28;20028;-86
2024/01/16 01:14:08;;;;;;;4.43;1.50;;;0.00;99.90;;;;;;5123844;27;20027;-85
2024/01/16 01:16:34;;;;;;;3.37;1.00;;;0.00;99.90;;;;;;5112213;27;20078;-85
2024/01/16 01:18:59;;;;;;;5.20;0.73;;;-0.10;99.90;;;;;;5126808;27;20509;-85
2024/01/16 01:21:25;;;;;;;5.93;0.70;;;-0.10;99.90;;;;;;5112961;27;20097;-85
2024/01/16 01:23:51;;;;;;;4.37;0.90;;;-0.20;99.90;;;;;;5111882;27;20043;-86
2024/01/16 01:26:19;;;;;;;3.20;0.93;;;-0.30;99.90;;;;;;5127137;27;20027;-86
2024/01/16 01:28:44;;;;;;;5.47;0.80;;;-0.30;99.90;;;;;;5110959;28;20106;-86
2024/01/16 01:31:11;;;;;;;4.67;0.90;;;-0.40;99.90;;;;;;5111125;27;20122;-85
2024/01/16 01:33:37;;;;;;;3.80;1.00;;;-0.50;99.90;;;;;;5095932;27;20031;-86
2024/01/16 01:36:02;;;;;;;2.87;0.90;;;-0.60;99.90;;;;;;5109254;28;20035;-86
2024/01/16 01:38:28;;;;;;;3.77;0.80;;;-0.60;99.90;;;;;;5113685;27;20445;-85
2024/01/16 01:40:54;;;;;;;4.30;1.03;;;-0.60;99.90;;;;;;5097717;28;20038;-85
2024/01/16 01:43:26;;;;;;;9.33;1.00;;;-0.70;99.90;;;;;;5082349;27;20039;-87
2024/01/16 01:46:10;;;;;;;6.33;1.17;;;-0.70;99.90;;;;;;5105162;28;20405;-86
2024/01/16 01:48:37;;;;;;;;;;;-0.70;99.90;;;;;;5107298;28;20050;-86
2024/01/16 01:51:03;;;;;;;7.27;1.00;;;-0.60;99.90;;;;;;5094649;28;19915;-86
2024/01/16 01:53:32;;;;;;;6.30;1.50;;;0.10;99.90;;;;;;5102027;28;20043;-86
2024/01/16 01:55:58;;;;;;;6.10;1.10;;;-0.50;99.90;;;;;;5130795;28;20039;-86
2024/01/16 01:58:23;;;;;;;5.83;1.00;;;-0.40;99.90;;;;;;5110624;28;20513;-85
2024/01/16 02:00:50;;;;;;;5.50;1.33;;;-0.30;99.90;;;;;;5110006;28;20042;-86
2024/01/16 02:03:16;;;;;;;2.73;0.70;;;-0.30;99.90;;;;;;5081065;28;20119;-86
2024/01/16 02:05:42;;;;;;;4.07;0.80;;;-0.30;99.90;;;;;;5092652;28;20168;-86
2024/01/16 02:08:08;;;;;;;4.77;0.80;;;-0.30;99.90;;;;;;5095603;28;20446;-86
2024/01/16 02:10:37;;;;;;;3.63;0.80;;;-0.30;99.90;;;;;;5120765;27;20046;-87
2024/01/16 02:13:03;;;;;;;3.00;0.77;;;-0.30;99.90;;;;;;5117933;27;20516;-85
2024/01/16 02:15:29;;;;;;;4.47;0.70;;;-0.30;99.90;;;;;;5113429;27;20502;-86
2024/01/16 02:17:55;;;;;;;8.17;1.40;;;-0.30;99.90;;;;;;5129151;27;20039;-85
2024/01/16 02:20:20;;;;;;;7.60;1.03;;;-0.30;99.90;;;;;;5130370;27;20035;-85
2024/01/16 02:22:51;;;;;;;3.77;0.73;;;-0.30;99.90;;;;;;5113452;27;20038;-86
2024/01/16 02:25:17;;;;;;;5.13;0.83;;;-0.30;99.90;;;;;;5115397;27;20061;-85
2024/01/16 02:27:43;;;;;;;6.97;1.00;;;-0.30;99.90;;;;;;5135338;27;20110;-86
2024/01/16 02:30:08;;;;;;;3.70;0.97;;;-0.30;99.90;;;;;;5110265;27;20507;-86
2024/01/16 02:32:34;;;;;;;4.40;0.80;;;-0.40;99.90;;;;;;5134757;27;20074;-86
2024/01/16 02:35:00;;;;;;;5.77;0.73;;;-0.50;99.90;;;;;;5116665;27;20039;-86
2024/01/16 02:37:25;;;;;;;4.17;1.10;;;-0.50;99.90;;;;;;5111846;27;20517;-86
2024/01/16 02:39:51;;;;;;;5.97;1.00;;;-0.60;99.90;;;;;;5116588;27;20043;-85
2024/01/16 02:42:16;;;;;;;6.70;0.90;;;-0.60;99.90;;;;;;5107517;28;20040;-86
2024/01/16 02:44:42;;;;;;;2.57;1.03;;;-0.70;99.90;;;;;;5111156;27;20035;-86
2024/01/16 02:47:08;;;;;;;3.93;0.70;;;-0.80;99.90;;;;;;5099538;27;20031;-85
2024/01/16 02:49:33;;;;;;;3.47;0.63;;;-0.80;99.90;;;;;;5134489;27;20332;-85
2024/01/16 02:51:59;;;;;;;4.90;1.20;;;-0.80;99.90;;;;;;5096405;27;20038;-86
2024/01/16 02:54:25;;;;;;;6.63;1.00;;;-0.90;99.90;;;;;;5134576;27;20046;-86
2024/01/16 02:56:50;;;;;;;4.77;0.90;;;-1.00;99.90;;;;;;5091589;27;20031;-86
2024/01/16 02:59:16;;;;;;;4.97;0.77;;;-1.00;99.90;;;;;;5115398;27;21582;-86
2024/01/16 03:01:42;;;;;;;5.77;0.80;;;-1.10;99.90;;;;;;5097339;27;20057;-86
2024/01/16 03:04:08;;;;;;;5.77;1.10;;;-1.10;99.90;;;;;;5106494;27;20035;-86
2024/01/16 03:06:34;;;;;;;3.40;0.80;;;-1.10;99.90;;;;;;5111261;27;20035;-86
2024/01/16 03:09:00;;;;;;;5.27;1.00;;;-1.10;99.90;;;;;;5132794;27;20130;-86
2024/01/16 03:11:26;;;;;;;6.30;1.00;;;-1.10;99.90;;;;;;5108537;27;20069;-86
2024/01/16 03:13:53;;;;;;;3.60;0.87;;;-1.10;99.90;;;;;;5115806;27;20483;-86
2024/01/16 03:16:18;;;;;;;6.27;0.70;;;-1.20;99.90;;;;;;5098713;27;20084;-86
2024/01/16 03:18:44;;;;;;;5.83;1.10;;;-1.20;99.90;;;;;;5116173;27;20031;-86
2024/01/16 03:21:11;;;;;;;5.73;1.17;;;-1.20;99.90;;;;;;5125425;27;20127;-86
2024/01/16 03:23:36;;;;;;;7.93;1.00;;;-1.10;99.90;;;;;;5095976;27;20076;-85
2024/01/16 03:26:03;;;;;;;12.37;1.53;;;-1.10;99.90;;;;;;5104196;27;20031;-85
2024/01/16 03:28:29;;;;;;;5.60;0.90;;;0.00;99.90;;;;;;5114453;27;20432;-87
2024/01/16 03:30:54;;;;;;;4.73;0.90;;;-1.10;99.90;;;;;;5087885;27;20061;-86
2024/01/16 03:33:20;;;;;;;8.07;1.13;;;-1.10;99.90;;;;;;5133323;27;20458;-85
2024/01/16 03:35:47;;;;;;;7.17;0.97;;;-1.10;99.90;;;;;;5098729;27;20117;-85
2024/01/16 03:38:13;;;;;;;5.73;1.13;;;-1.10;99.90;;;;;;5098873;27;20142;-86
2024/01/16 03:40:38;;;;;;;4.30;1.10;;;-1.10;99.90;;;;;;5116081;27;20039;-86
2024/01/16 03:43:07;;;;;;;6.67;1.40;;;-1.10;99.90;;;;;;5112796;27;20409;-86
2024/01/16 03:45:33;;;;;;;4.47;0.90;;;-1.10;99.90;;;;;;5114581;27;20502;-86
2024/01/16 03:47:58;;;;;;;6.73;1.80;;;-1.10;99.90;;;;;;5098754;27;20125;-86
2024/01/16 03:50:24;;;;;;;6.50;0.90;;;0.20;99.90;;;;;;5115326;27;20058;-86
2024/01/16 03:52:50;;;;;;;8.73;0.90;;;-1.10;99.90;;;;;;5122449;27;20495;-87
2024/01/16 03:55:15;;;;;;;3.77;0.80;;;-1.00;99.90;;;;;;5098522;27;20035;-86
2024/01/16 03:57:42;;;;;;;7.83;0.93;;;-1.00;99.90;;;;;;5115964;27;20455;-87
2024/01/16 04:00:12;;;;;;;8.50;1.23;;;0.40;99.90;;;;;;5134179;27;20114;-87
2024/01/16 04:02:38;;;;;;;5.60;1.10;;;-1.00;99.90;;;;;;5091343;28;20047;-86
2024/01/16 04:05:04;;;;;;;9.73;1.70;;;-1.00;99.90;;;;;;5082348;27;20054;-87
2024/01/16 04:07:31;;;;;;;4.23;1.00;;;-1.00;99.90;;;;;;5122807;27;20064;-86
2024/01/16 04:09:56;;;;;;;7.33;1.10;;;-1.00;99.90;;;;;;5111930;28;20047;-86
2024/01/16 04:12:22;;;;;;;6.20;0.90;;;-1.00;99.90;;;;;;5089223;27;20117;-87
2024/01/16 04:14:48;;;;;;;3.70;1.10;;;-1.00;99.90;;;;;;5097706;27;20096;-87
2024/01/16 04:17:13;;;;;;;9.73;1.00;;;-1.00;99.90;;;;;;5131005;27;20031;-85
2024/01/16 04:19:39;;;;;;;9.03;1.10;;;-0.90;99.90;;;;;;5102076;28;20180;-87
2024/01/16 04:22:05;;;;;;;7.47;1.00;;;-0.90;99.90;;;;;;5119492;27;20039;-86
2024/01/16 04:24:31;;;;;;;6.20;1.00;;;-1.00;99.90;;;;;;5133502;27;20031;-87
2024/01/16 04:26:57;;;;;;;9.30;0.90;;;-0.90;99.90;;;;;;5085804;27;20027;-85
2024/01/16 04:29:22;;;;;;;5.20;1.00;;;-0.90;99.90;;;;;;5114801;27;20452;-87
2024/01/16 04:31:48;;;;;;;5.97;1.30;;;-0.90;99.90;;;;;;5087978;27;20035;-87
2024/01/16 04:34:14;;;;;;;4.90;1.00;;;-0.80;99.90;;;;;;5131667;27;20031;-87
2024/01/16 04:36:39;;;;;;;2.10;0.80;;;-0.80;99.90;;;;;;5133676;27;20113;-87
2024/01/16 04:39:05;;;;;;;2.97;0.67;;;-0.80;99.90;;;;;;5114943;27;20027;-87
2024/01/16 04:41:31;;;;;;;8.63;0.87;;;-0.70;99.90;;;;;;5096563;27;20035;-87
2024/01/16 04:43:56;;;;;;;2.37;0.60;;;-0.70;99.90;;;;;;5111982;27;20043;-87
2024/01/16 04:46:22;;;;;;;8.13;0.90;;;-0.70;99.90;;;;;;5111073;27;20371;-86
2024/01/16 04:48:47;;;;;;;3.80;1.17;;;-0.70;99.90;;;;;;5109086;28;20023;-88
2024/01/16 04:51:13;;;;;;;3.97;0.70;;;-0.60;99.90;;;;;;5094656;27;20043;-86
2024/01/16 04:53:40;;;;;;;4.90;1.00;;;-0.60;99.90;;;;;;5106406;27;20044;-87
2024/01/16 04:56:06;;;;;;;4.10;1.30;;;-0.60;99.90;;;;;;5113953;27;20114;-86
2024/01/16 04:58:31;;;;;;;9.00;1.00;;;-0.60;99.90;;;;;;5114963;27;20118;-86
2024/01/16 05:00:58;;;;;;;8.83;1.27;;;-0.60;99.90;;;;;;5113834;27;20573;-87
2024/01/16 05:03:24;;;;;;;6.03;1.20;;;-0.60;99.90;;;;;;5096718;27;20418;-86
2024/01/16 05:05:49;;;;;;;6.63;1.20;;;-0.60;99.90;;;;;;5092927;28;20028;-86
2024/01/16 05:08:15;;;;;;;8.33;1.13;;;-0.60;99.90;;;;;;5097900;27;20087;-87
2024/01/16 05:10:40;;;;;;;5.40;0.90;;;-0.60;99.90;;;;;;5110691;27;20059;-86
2024/01/16 05:13:06;;;;;;;5.87;1.00;;;-0.60;99.90;;;;;;5114563;27;20049;-87
2024/01/16 05:15:31;;;;;;;6.03;1.17;;;-0.60;99.90;;;;;;5106315;27;20517;-86
2024/01/16 05:17:57;;;;;;;4.27;0.90;;;0.60;99.90;;;;;;5097910;27;20035;-88
2024/01/16 05:20:23;;;;;;;4.63;0.80;;;-0.50;99.90;;;;;;5114601;27;20116;-86
2024/01/16 05:22:48;;;;;;;8.63;1.20;;;-0.50;99.90;;;;;;5133307;27;20038;-86
2024/01/16 05:25:14;;;;;;;7.37;1.00;;;-0.50;99.90;;;;;;5093371;27;20482;-87
2024/01/16 05:27:40;;;;;;;4.30;1.10;;;0.50;99.90;;;;;;5112727;27;20091;-86
2024/01/16 05:30:06;;;;;;;7.03;0.80;;;-0.40;99.90;;;;;;5117106;27;20031;-86
2024/01/16 05:32:32;;;;;;;3.70;0.77;;;-0.40;99.90;;;;;;5120118;27;20164;-86
2024/01/16 05:34:58;;;;;;;7.00;1.23;;;-0.40;99.90;;;;;;5084580;27;20516;-87
2024/01/16 05:37:23;;;;;;;6.73;0.90;;;-0.30;99.90;;;;;;5129007;27;20312;-86
2024/01/16 05:39:49;;;;;;;5.67;1.03;;;-0.40;99.90;;;;;;5096964;27;20378;-86
2024/01/16 05:42:15;;;;;;;4.03;0.97;;;1.30;99.90;;;;;;5113478;27;20043;-87
2024/01/16 05:44:41;;;;;;;3.43;1.07;;;-0.30;99.90;;;;;;5105119;27;20080;-86
2024/01/16 05:47:06;;;;;;;4.03;0.80;;;-0.30;99.90;;;;;;5105774;28;20031;-86
2024/01/16 05:49:32;;;;;;;3.47;0.80;;;-0.30;99.90;;;;;;5098113;28;20475;-86
2024/01/16 05:51:58;;;;;;;5.33;1.40;;;-0.30;99.90;;;;;;5097731;28;20031;-86
2024/01/16 05:54:23;;;;;;;8.50;1.20;;;-0.30;99.90;;;;;;5094804;28;20136;-86
2024/01/16 05:56:49;;;;;;;2.70;0.63;;;-0.40;99.90;;;;;;5112748;28;20117;-87
2024/01/16 05:59:15;;;;;;;6.37;1.00;;;-0.10;99.90;;;;;;5103018;28;20096;-87
2024/01/16 06:01:41;;;;;;;5.73;1.10;;;0.50;99.90;;;;;;5123693;28;20027;-86
2024/01/16 06:04:07;;;;;;;10.23;1.63;;;-0.50;99.90;;;;;;5120306;28;20032;-86
2024/01/16 06:06:33;;;;;;;7.27;1.07;;;-0.50;99.90;;;;;;5120367;28;20035;-86
2024/01/16 06:09:03;;;;;;;9.63;1.43;;;-0.50;99.90;;;;;;5111016;28;20074;-86
2024/01/16 06:11:34;;;;;;;4.57;1.17;;;0.60;99.90;;;;;;5123536;28;20070;-86
2024/01/16 06:14:00;;;;;;;11.23;1.20;;;-0.60;99.90;;;;;;5107100;28;20048;-87
2024/01/16 06:16:26;;;;;;;5.20;1.57;;;-0.60;99.90;;;;;;5108669;28;20043;-87
2024/01/16 06:18:51;;;;;;;5.20;1.10;;;-0.60;99.90;;;;;;5132166;28;20031;-87
2024/01/16 06:21:17;;;;;;;10.10;1.60;;;-0.70;99.90;;;;;;5115394;28;20561;-86
2024/01/16 06:23:43;;;;;;;7.77;1.13;;;-0.70;99.90;;;;;;5113569;28;20027;-85
2024/01/16 06:26:09;;;;;;;6.77;1.47;;;-0.70;99.90;;;;;;5097297;28;20039;-86
2024/01/16 06:28:35;;;;;;;4.73;1.10;;;-0.70;99.90;;;;;;5113499;28;20046;-86
2024/01/16 06:31:01;;;;;;;4.50;1.00;;;-0.70;99.90;;;;;;5129472;28;20031;-87
2024/01/16 06:33:26;;;;;;;5.20;1.20;;;-0.70;99.90;;;;;;5095968;28;20456;-87
2024/01/16 06:35:54;;;;;;;6.87;1.20;;;-0.70;99.90;;;;;;5085497;28;20032;-86
2024/01/16 06:38:20;;;;;;;8.27;1.20;;;-0.60;99.90;;;;;;5133818;28;20375;-86
2024/01/16 06:40:46;;;;;;;4.33;1.30;;;0.50;99.90;;;;;;5125240;28;20092;-86
2024/01/16 06:43:15;;;;;;;7.23;1.43;;;-0.70;99.90;;;;;;5113679;28;20058;-86
2024/01/16 06:45:42;;;;;;;12.23;1.97;;;0.20;99.90;;;;;;5127331;27;20027;-86
2024/01/16 06:48:08;;;;;;;7.83;1.97;;;0.00;99.90;;;;;;5112546;28;20035;-85
2024/01/16 06:50:33;;;;;;;5.53;1.73;;;-0.70;99.90;;;;;;5091756;28;20036;-86
2024/01/16 06:52:59;;;;;;;8.40;1.97;;;0.50;99.90;;;;;;5094939;28;20418;-86
2024/01/16 06:55:24;;;;;;;6.20;1.40;;;-0.70;99.90;;;;;;5082594;28;20053;-86
2024/01/16 06:57:50;;;;;;;11.10;3.10;;;-0.70;99.90;;;;;;5118378;27;20050;-87
2024/01/16 07:00:16;;;;;;;8.43;1.80;;;-0.60;99.90;;;;;;5108969;27;20062;-87
2024/01/16 07:02:44;;;;;;;13.67;2.63;;;-0.60;99.90;;;;;;5115053;27;20055;-86
2024/01/16 07:05:11;;;;;;;11.57;2.07;;;-0.70;99.90;;;;;;5091916;28;20429;-86
2024/01/16 07:07:37;;;;;;;4.40;1.40;;;-0.70;99.90;;;;;;5106229;27;20376;-86
2024/01/16 07:10:03;;;;;;;5.73;1.87;;;1.00;99.90;;;;;;5109568;27;20038;-87
2024/01/16 07:12:29;;;;;;;7.97;1.87;;;-0.70;99.90;;;;;;5099196;27;20039;-87
2024/01/16 07:14:55;;;;;;;4.33;1.20;;;0.30;99.90;;;;;;5105638;27;20070;-87
2024/01/16 07:17:22;;;;;;;4.30;1.07;;;0.40;99.90;;;;;;5090420;27;20564;-87
2024/01/16 07:19:48;;;;;;;5.43;1.00;;;0.80;99.90;;;;;;5131831;27;20046;-87
2024/01/16 07:22:14;;;;;;;6.97;1.10;;;-0.70;99.90;;;;;;5117046;27;20419;-86
2024/01/16 07:24:40;;;;;;;4.50;1.00;;;0.70;99.90;;;;;;5112850;27;20039;-86
2024/01/16 07:27:06;;;;;;;5.87;1.07;;;-0.70;99.90;;;;;;5116752;27;20042;-87
2024/01/16 07:29:31;;;;;;;5.53;1.17;;;-0.70;99.90;;;;;;5111779;27;20027;-86
2024/01/16 07:31:57;;;;;;;3.97;1.00;;;-0.70;99.90;;;;;;5123710;27;20047;-87
2024/01/16 07:34:23;;;;;;;4.03;1.00;;;-0.70;99.90;;;;;;5115382;27;20099;-87
2024/01/16 07:36:48;;;;;;;9.33;1.00;;;0.70;99.90;;;;;;5096191;27;20104;-86
2024/01/16 07:39:14;;;;;;;6.90;1.10;;;-0.70;99.90;;;;;;5137636;27;20031;-87
2024/01/16 07:41:40;;;;;;;4.20;1.23;;;-0.70;99.90;;;;;;5121059;27;20167;-87
2024/01/16 07:44:06;;;;;;;9.50;1.90;;;-0.70;99.90;;;;;;5138106;27;20421;-87
2024/01/16 07:46:31;;;;;;;3.37;0.77;;;-0.70;99.90;;;;;;5120231;27;20037;-86
2024/01/16 07:48:57;;;;;;;5.57;1.20;;;-0.70;99.90;;;;;;5117929;27;20511;-86
2024/01/16 07:51:22;;;;;;;10.93;1.00;;;0.20;99.90;;;;;;5128208;27;20042;-87
2024/01/16 07:53:51;;;;;;;3.40;0.87;;;-0.70;99.90;;;;;;5100788;27;20041;-87
2024/01/16 07:56:17;;;;;;;4.67;0.90;;;-0.80;99.90;;;;;;5131862;27;20644;-86
2024/01/16 07:58:43;;;;;;;6.90;1.20;;;0.50;99.90;;;;;;5118360;27;20131;-86
2024/01/16 08:01:08;;;;;;;4.20;1.00;;;-0.60;99.90;;;;;;5112438;27;20046;-87
2024/01/16 08:03:34;;;;;;;5.87;1.03;;;0.00;99.90;;;;;;5127107;27;20039;-87
2024/01/16 08:05:59;;;;;;;8.10;1.47;;;-0.50;99.90;;;;;;5131966;27;20038;-86
2024/01/16 08:08:25;;;;;;;5.90;1.63;;;-0.20;99.90;;;;;;5133354;27;20392;-86
2024/01/16 08:10:51;;;;;;;9.73;1.30;;;0.40;99.90;;;;;;5116046;27;20038;-86
2024/01/16 08:13:16;;;;;;;4.73;1.43;;;-0.40;99.90;;;;;;5135242;27;20186;-86
2024/01/16 08:15:42;;;;;;;5.20;1.70;;;1.10;99.90;;;;;;5135093;27;20106;-86
2024/01/16 08:18:08;;;;;;;11.67;3.20;;;0.30;99.90;;;;;;5117993;27;20075;-86
2024/01/16 08:20:33;;;;;;;10.23;1.77;;;-0.30;99.90;;;;;;5115831;27;20050;-86
2024/01/16 08:22:59;;;;;;;7.87;2.03;;;-0.40;99.90;;;;;;5104871;27;20031;-87
2024/01/16 08:25:25;;;;;;;6.77;1.43;;;-0.30;99.90;;;;;;5118501;27;20039;-86
2024/01/16 08:27:50;;;;;;;6.27;2.00;;;-0.30;99.90;;;;;;5107073;27;20198;-86
2024/01/16 08:30:16;;;;;;;6.53;2.10;;;-0.20;99.90;;;;;;5103603;27;20459;-86
2024/01/16 08:32:42;;;;;;;8.03;1.90;;;-0.20;99.90;;;;;;5117641;27;20035;-87
2024/01/16 08:35:08;;;;;;;3.33;1.00;;;0.50;99.90;;;;;;5100494;27;20489;-85
2024/01/16 08:37:34;;;;;;;5.73;1.50;;;-0.20;99.90;;;;;;5082985;28;20519;-86
2024/01/16 08:40:00;;;;;;;8.40;1.23;;;-0.10;99.90;;;;;;5108251;27;20118;-86
2024/01/16 08:42:26;;;;;;;4.80;1.60;;;-0.20;99.90;;;;;;5118297;27;20122;-86
2024/01/16 08:44:52;;;;;;;6.43;1.87;;;0.00;99.90;;;;;;5100123;27;20034;-85
2024/01/16 08:47:17;;;;;;;6.37;2.57;;;0.00;99.90;;;;;;5117252;27;20031;-86
2024/01/16 08:49:43;;;;;;;6.40;2.60;;;0.10;99.90;;;;;;5114793;27;20035;-86
2024/01/16 08:52:10;;;;;;;6.90;2.60;;;0.10;99.90;;;;;;5118846;27;20092;-86
2024/01/16 08:54:35;;;;;;;9.43;1.50;;;0.10;99.90;;;;;;5104006;27;20048;-86
2024/01/16 08:57:01;;;;;;;5.50;1.33;;;1.60;99.90;;;;;;5101273;27;20090;-85
2024/01/16 08:59:28;;;;;;;7.67;2.73;;;0.30;99.90;;;;;;5133874;27;20092;-85
2024/01/16 09:01:53;;;;;;;9.30;1.83;;;0.30;99.90;;;;;;5091609;27;20410;-85
2024/01/16 09:04:19;;;;;;;4.73;1.50;;;0.30;99.90;;;;;;5109880;27;20031;-86
2024/01/16 09:06:45;;;;;;;6.63;1.30;;;0.40;99.90;;;;;;5106459;28;20035;-85
2024/01/16 09:09:12;;;;;;;7.23;2.27;;;0.90;99.90;;;;;;5129575;27;20347;-85
2024/01/16 09:11:38;;;;;;;5.80;1.10;;;0.50;99.90;;;;;;5131883;27;20067;-85
2024/01/16 09:14:03;;;;;;;5.37;1.10;;;0.50;99.90;;;;;;5131653;27;20081;-85
2024/01/16 09:16:29;;;;;;;4.43;1.10;;;0.50;99.90;;;;;;5095671;27;20096;-85
2024/01/16 09:18:54;;;;;;;8.27;1.40;;;0.60;99.90;;;;;;5107993;28;20063;-85
2024/01/16 09:21:20;;;;;;;4.97;1.30;;;0.60;99.90;;;;;;5088147;27;20035;-85
2024/01/16 09:23:46;;;;;;;2.27;1.17;;;0.70;99.90;;;;;;5108204;27;20510;-85
2024/01/16 09:26:11;;;;;;;6.97;1.20;;;0.60;99.90;;;;;;5096690;27;20062;-86
2024/01/16 09:28:37;;;;;;;6.67;1.43;;;0.60;99.90;;;;;;5113632;27;20047;-85
2024/01/16 09:31:03;;;;;;;5.30;1.10;;;0.60;99.90;;;;;;5095451;27;20035;-85
2024/01/16 09:33:29;;;;;;;5.27;1.20;;;0.60;99.90;;;;;;5128457;27;20050;-85
2024/01/16 09:35:55;;;;;;;4.43;1.10;;;0.60;99.90;;;;;;5111618;27;20031;-85
2024/01/16 09:38:20;;;;;;;5.43;1.30;;;0.60;99.90;;;;;;5112644;27;20035;-84
2024/01/16 09:40:47;;;;;;;5.57;1.87;;;0.60;99.90;;;;;;5094849;28;20070;-85
2024/01/16 09:43:13;;;;;;;6.50;1.50;;;0.50;99.90;;;;;;5100188;27;20140;-85
2024/01/16 09:45:38;;;;;;;4.70;2.13;;;0.50;99.90;;;;;;5112859;27;20820;-84
2024/01/16 09:48:05;;;;;;;4.27;1.30;;;0.60;99.90;;;;;;5106843;28;20070;-85
2024/01/16 09:50:31;;;;;;;3.97;1.50;;;0.60;99.90;;;;;;5123185;27;20039;-84
2024/01/16 09:52:58;;;;;;;7.30;1.10;;;0.60;99.90;;;;;;5112500;27;20413;-85
2024/01/16 09:55:24;;;;;;;3.83;1.27;;;0.60;99.90;;;;;;5108581;27;20043;-85
2024/01/16 09:57:53;;;;;;;3.60;0.93;;;0.70;99.90;;;;;;5129576;28;20414;-85
2024/01/16 10:00:20;;;;;;;7.03;1.40;;;0.80;99.90;;;;;;5111609;28;20102;-84
2024/01/16 10:02:46;;;;;;;4.43;1.07;;;0.90;99.90;;;;;;5126996;28;20047;-85
2024/01/16 10:05:13;;;;;;;2.70;1.07;;;0.90;99.90;;;;;;5112876;28;20104;-85
2024/01/16 10:07:44;;;;;;;3.73;0.93;;;1.00;99.90;;;;;;5085827;28;20038;-84
2024/01/16 10:10:12;;;;;;;4.63;1.00;;;1.00;99.90;;;;;;5124122;28;20479;-85
2024/01/16 10:12:40;;;;;;;3.77;1.10;;;1.10;99.90;;;;;;5096829;28;20040;-85
2024/01/16 10:15:07;;;;;;;4.40;1.33;;;1.00;99.90;;;;;;5111698;28;20498;-85
2024/01/16 10:17:41;;;;;;;5.53;1.40;;;1.00;99.90;;;;;;5109524;28;20046;-85
2024/01/16 10:20:13;;;;;;;5.33;1.90;;;0.40;99.90;;;;;;5098586;28;20074;-85
2024/01/16 10:22:51;;;;;;;4.57;1.90;;;1.00;99.90;;;;;;5084291;28;20077;-85
2024/01/16 10:25:19;;;;;;;5.47;1.57;;;1.00;99.90;;;;;;5086371;28;20039;-85
2024/01/16 10:27:45;;;;;;;5.97;1.37;;;1.00;99.90;;;;;;5101551;28;20072;-85
2024/01/16 10:30:12;;;;;;;2.87;1.37;;;1.10;99.90;;;;;;5094197;28;20035;-86
2024/01/16 10:32:39;;;;;;;3.83;1.40;;;1.00;99.90;;;;;;5106758;28;20044;-86
2024/01/16 10:35:08;;;;;;;6.93;1.90;;;1.00;99.90;;;;;;5100559;27;20525;-85
2024/01/16 10:37:53;;;;;;;4.43;1.80;;;0.90;99.90;;;;;;5120918;27;20059;-85
2024/01/16 10:40:20;;;;;;;5.87;1.40;;;1.00;99.90;;;;;;5103205;28;20081;-86
2024/01/16 10:42:57;;;;;;;4.37;1.93;;;1.00;99.90;;;;;;5117381;27;20031;-85
2024/01/16 10:45:23;;;;;;;9.23;2.30;;;1.00;99.90;;;;;;5103331;28;20031;-85
2024/01/16 10:48:01;;;;;;;5.20;1.80;;;1.00;99.90;;;;;;5125193;27;20054;-85
2024/01/16 10:50:27;;;;;;;5.50;2.40;;;0.90;99.90;;;;;;5094322;27;20038;-86
2024/01/16 10:52:54;;;;;;;6.20;2.67;;;0.90;99.90;;;;;;5108645;27;20498;-85
2024/01/16 10:55:23;;;;;;;7.63;2.97;;;0.90;99.90;;;;;;5114904;27;20042;-85
2024/01/16 10:57:50;;;;;;;5.57;2.73;;;0.90;99.90;;;;;;5117993;27;20123;-86
2024/01/16 11:00:22;;;;;;;6.73;3.50;;;0.90;99.90;;;;;;5081925;28;20039;-86
2024/01/16 11:03:16;;;;;;;10.00;3.40;;;1.00;99.90;;;;;;5088768;27;20629;-85
2024/01/16 11:05:43;;;;;;;5.40;3.30;;;1.10;99.90;;;;;;5101839;27;20035;-85
2024/01/16 11:08:09;;;;;;;8.17;4.17;;;1.10;99.90;;;;;;5114775;27;20031;-85
2024/01/16 11:10:36;;;;;;;11.13;3.70;;;1.20;99.90;;;;;;5102948;27;20513;-86
2024/01/16 11:13:04;;;;;;;8.33;3.97;;;1.20;99.90;;;;;;5110560;27;20398;-85
2024/01/16 11:15:31;;;;;;;9.33;3.93;;;1.20;99.90;;;;;;5097428;27;20088;-85
2024/01/16 11:17:59;;;;;;;8.60;3.30;;;1.20;99.90;;;;;;5104035;27;20043;-86
2024/01/16 11:20:25;;;;;;;5.20;3.00;;;1.20;99.90;;;;;;5088418;27;20063;-86
2024/01/16 11:22:54;;;;;;;3.93;2.60;;;1.20;99.90;;;;;;5108857;27;20462;-86
2024/01/16 11:25:20;;;;;;;5.30;2.57;;;1.10;99.90;;;;;;5099668;28;20042;-87
2024/01/16 11:27:51;;;;;;;3.80;2.10;;;1.10;99.90;;;;;;5102648;28;20035;-86
2024/01/16 11:30:31;;;;;;;4.60;1.87;;;1.10;99.90;;;;;;5086141;27;20027;-86
2024/01/16 11:32:57;;;;;;;4.90;2.10;;;1.00;99.90;;;;;;5115825;27;20089;-86
2024/01/16 11:35:40;;;;;;;4.63;1.73;;;1.00;99.90;;;;;;5115963;27;20035;-87
2024/01/16 11:38:20;;;;;;;3.58;1.40;;;0.90;99.90;;;;;;5080951;27;20035;-87
2024/01/16 11:40:47;;;;;;;3.50;2.00;;;0.90;99.90;;;;;;5086396;27;20071;-87
2024/01/16 11:43:45;;;;;;;4.50;1.43;;;0.90;99.90;;;;;;5119725;27;20036;-87
2024/01/16 11:46:11;;;;;;;3.30;1.80;;;0.90;99.90;;;;;;5052113;28;20071;-87
2024/01/16 11:48:39;;;;;;;3.87;1.97;;;0.90;99.90;;;;;;5123958;27;20045;-87
2024/01/16 11:51:40;;;;;;;4.43;1.80;;;1.00;99.90;;;;;;5083296;27;20067;-87
2024/01/16 11:54:08;;;;;;;8.33;2.13;;;1.00;99.90;;;;;;5061365;28;20078;-87
2024/01/16 11:56:41;;;;;;;5.07;1.90;;;1.00;99.90;;;;;;5103831;27;20096;-88
2024/01/16 11:59:10;;;;;;;3.78;2.00;;;1.80;99.90;;;;;;5105267;27;20037;-88
2024/01/16 12:01:36;;;;;;;3.70;1.80;;;1.10;99.90;;;;;;5087303;27;20035;-88
2024/01/16 12:04:05;;;;;;;4.73;2.17;;;1.10;99.90;;;;;;5098112;27;20383;-88
2024/01/16 12:06:32;;;;;;;4.63;2.13;;;1.10;99.90;;;;;;5106476;28;20387;-88
2024/01/16 12:09:14;;;;;;;3.73;1.87;;;1.20;99.90;;;;;;5127135;27;20039;-89
2024/01/16 12:11:43;;;;;;;5.00;1.80;;;1.20;99.90;;;;;;5115810;27;20034;-89
2024/01/16 12:14:09;;;;;;;6.70;1.97;;;1.20;99.90;;;;;;5114383;27;20035;-89
2024/01/16 12:16:35;;;;;;;3.63;1.70;;;1.30;99.90;;;;;;5097915;27;20072;-90
2024/01/16 12:19:08;;;;;;;6.77;2.50;;;1.30;99.90;;;;;;5087526;27;20047;-90
2024/01/16 12:21:46;;;;;;;5.45;2.58;;;2.30;99.90;;;;;;5113570;27;20039;-91
2024/01/16 12:24:12;;;;;;;5.27;2.10;;;1.60;99.90;;;;;;5093513;27;20082;-90
2024/01/16 12:26:39;;;;;;;7.03;2.17;;;1.80;99.90;;;;;;5107176;27;20531;-90
2024/01/16 12:29:05;;;;;;;6.80;2.13;;;1.80;99.90;;;;;;5097406;27;20486;-90
2024/01/16 12:31:31;;;;;;;5.37;2.30;;;3.10;99.90;;;;;;5094768;27;20042;-89
2024/01/16 12:34:15;;;;;;;9.07;2.43;;;3.00;99.90;;;;;;5114984;27;20031;-89
2024/01/16 12:36:41;;;;;;;7.57;1.90;;;3.10;99.90;;;;;;5134721;27;20395;-90
2024/01/16 12:39:11;;;;;;;7.87;2.20;;;1.90;99.90;;;;;;5091809;27;20070;-91
2024/01/16 12:41:41;;;;;;;7.43;2.93;;;2.40;99.90;;;;;;5091448;27;20183;-91
2024/01/16 12:44:07;;;;;;;5.73;3.13;;;3.10;99.90;;;;;;5093439;27;20039;-90
2024/01/16 12:46:33;;;;;;;6.67;2.70;;;3.10;99.90;;;;;;5093014;27;20045;-91
2024/01/16 12:49:03;;;;;;;9.17;3.63;;;3.60;99.90;;;;;;5096077;27;20068;-90